Time;durP1;ratioP1;P1;durP2;ratioP2;P2;SDS_P1;SDS_P2;PMS_P1;PMS_P2;Temp;Humidity;BMP_temperature;BMP_pressure;BME280_temperature;BME280_humidity;BME280_pressure;Samples;Min_cycle;Max_cycle;Signal;HPM_P1;HPM_P2
2021/07/20 00:02:13;;;;;;;10.35;6.43;;;;;;;16.66;87.76;95672.06;5031203;28;20091;-80
2021/07/20 00:04:38;;;;;;;10.43;6.32;;;;;;;16.71;87.31;95671.16;5029391;28;20029;-80
2021/07/20 00:07:04;;;;;;;12.35;6.65;;;;;;;16.66;86.43;95672.06;5033988;28;20041;-80
2021/07/20 00:09:30;;;;;;;13.38;7.15;;;;;;;16.49;86.00;95666.66;5035654;28;20041;-81
2021/07/20 00:11:55;;;;;;;12.35;6.60;;;;;;;16.48;85.06;95665.06;5041094;28;20057;-80
2021/07/20 00:14:21;;;;;;;19.25;8.23;;;;;;;16.26;83.50;95658.69;5033524;28;20415;-81
2021/07/20 00:16:46;;;;;;;11.80;7.47;;;;;;;16.25;82.56;95657.13;5037379;28;20083;-80
2021/07/20 00:19:13;;;;;;;16.08;7.90;;;;;;;16.18;81.73;95662.06;5029601;28;20049;-81
2021/07/20 00:21:38;;;;;;;15.73;8.15;;;;;;;16.10;82.60;95661.72;5034467;28;20402;-80
2021/07/20 00:24:04;;;;;;;12.85;8.10;;;;;;;16.07;81.15;95651.66;5035085;28;20041;-80
2021/07/20 00:26:30;;;;;;;14.32;8.07;;;;;;;16.01;80.90;95646.78;5034606;28;20044;-81
2021/07/20 00:28:56;;;;;;;13.07;8.23;;;;;;;15.99;81.02;95652.41;5032191;28;20506;-80
2021/07/20 00:31:21;;;;;;;15.68;8.02;;;;;;;15.95;81.08;95664.69;5033746;28;20094;-80
2021/07/20 00:33:47;;;;;;;14.80;8.38;;;;;;;16.01;81.87;95657.41;5039548;28;20103;-80
2021/07/20 00:36:12;;;;;;;16.25;8.55;;;;;;;15.84;81.49;95650.09;5035967;28;20522;-80
2021/07/20 00:38:38;;;;;;;16.40;8.73;;;;;;;15.76;81.47;95649.69;5037937;28;20113;-80
2021/07/20 00:41:03;;;;;;;16.80;8.60;;;;;;;15.71;81.53;95649.00;5037696;28;20244;-80
2021/07/20 00:43:29;;;;;;;16.80;8.68;;;;;;;15.72;82.80;95651.34;5037416;28;20038;-80
2021/07/20 00:45:54;;;;;;;18.38;8.73;;;;;;;15.63;82.23;95642.53;5040329;28;20048;-80
2021/07/20 00:48:21;;;;;;;15.13;8.55;;;;;;;15.53;82.88;95642.72;5034780;28;20094;-80
2021/07/20 00:50:46;;;;;;;13.98;8.10;;;;;;;15.52;83.96;95641.19;5034902;28;20041;-80
2021/07/20 00:53:13;;;;;;;15.52;8.95;;;;;;;15.46;84.08;95632.56;5046829;28;20455;-80
2021/07/20 00:55:40;;;;;;;16.50;9.43;;;;;;;15.46;84.97;95647.66;5026401;28;20470;-80
2021/07/20 00:58:11;;;;;;;15.50;8.85;;;;;;;15.53;84.61;95642.72;5033464;28;20076;-80
2021/07/20 01:00:37;;;;;;;17.67;8.80;;;;;;;15.30;84.39;95645.34;5036987;28;20248;-80
2021/07/20 01:03:04;;;;;;;14.05;8.40;;;;;;;15.47;84.46;95643.94;5040100;28;20052;-80
2021/07/20 01:05:30;;;;;;;14.77;8.95;;;;;;;15.39;84.45;95638.25;5028904;28;20107;-80
2021/07/20 01:07:56;;;;;;;18.00;9.27;;;;;;;15.27;85.16;95637.19;5037130;28;20049;-80
2021/07/20 01:10:24;;;;;;;16.35;8.73;;;;;;;15.14;85.50;95646.69;5037989;28;20084;-80
2021/07/20 01:12:50;;;;;;;14.75;8.70;;;;;;;14.98;87.32;95646.97;5032734;28;20414;-80
2021/07/20 01:15:18;;;;;;;15.40;9.23;;;;;;;15.10;86.86;95629.81;5033335;28;20045;-80
2021/07/20 01:17:46;;;;;;;15.27;8.70;;;;;;;15.26;86.00;95633.75;5042565;28;20041;-80
2021/07/20 01:20:19;;;;;;;14.57;8.98;;;;;;;15.22;85.62;95627.47;5049029;28;20060;-81
2021/07/20 01:22:52;;;;;;;17.03;9.33;;;;;;;14.77;87.31;95621.94;5034204;28;20163;-80
2021/07/20 01:25:20;;;;;;;16.98;9.10;;;;;;;14.73;87.79;95642.94;5037576;28;20038;-80
2021/07/20 01:27:49;;;;;;;19.00;10.00;;;;;;;14.68;89.10;95645.69;5043720;28;20044;-80
2021/07/20 01:30:16;;;;;;;18.80;9.27;;;;;;;14.91;88.25;95633.34;5031978;28;20091;-80
2021/07/20 01:32:42;;;;;;;16.10;9.93;;;;;;;14.78;88.70;95634.13;5038307;28;20043;-81
2021/07/20 01:35:10;;;;;;;15.57;9.48;;;;;;;14.96;88.37;95633.25;5030709;28;20087;-80
2021/07/20 01:37:36;;;;;;;18.13;9.90;;;;;;;14.77;88.75;95633.34;5045202;28;20046;-80
2021/07/20 01:40:03;;;;;;;18.50;9.70;;;;;;;14.59;90.23;95632.28;5038582;28;20183;-80
2021/07/20 01:42:30;;;;;;;15.40;9.55;;;;;;;14.75;89.55;95621.47;5034855;28;20037;-81
2021/07/20 01:44:56;;;;;;;19.92;9.85;;;;;;;14.73;89.81;95627.84;5040292;28;20076;-81
2021/07/20 01:47:25;;;;;;;17.85;9.52;;;;;;;14.85;89.10;95618.63;5053875;28;20039;-80
2021/07/20 01:49:52;;;;;;;16.15;9.57;;;;;;;14.65;89.96;95625.88;5039721;28;20037;-81
2021/07/20 01:52:18;;;;;;;15.65;10.00;;;;;;;14.78;90.05;95623.53;5036797;28;20499;-80
2021/07/20 01:54:47;;;;;;;16.98;9.10;;;;;;;14.99;89.12;95624.72;5036679;28;20041;-80
2021/07/20 01:57:13;;;;;;;16.45;9.55;;;;;;;14.95;89.42;95609.72;5042520;28;20452;-80
2021/07/20 01:59:40;;;;;;;15.55;10.05;;;;;;;14.88;89.66;95616.19;5034178;28;20045;-80
2021/07/20 02:02:31;;;;;;;16.30;9.32;;;;;;;14.90;89.71;95621.19;5035140;28;20076;-80
2021/07/20 02:10:20;;;;;;;19.98;10.05;;;;;;;14.75;90.26;95624.13;5040389;28;20380;-80
2021/07/20 02:12:46;;;;;;;16.05;9.00;;;;;;;14.58;89.96;95630.72;5044143;28;20041;-80
2021/07/20 02:15:11;;;;;;;20.23;10.00;;;;;;;14.62;90.02;95630.97;5040325;28;20047;-80
2021/07/20 02:17:40;;;;;;;18.58;9.45;;;;;;;14.68;91.10;95630.59;5047909;28;20041;-80
2021/07/20 02:20:15;;;;;;;17.25;9.50;;;;;;;14.77;90.47;95637.84;5038994;28;20046;-80
2021/07/20 02:22:41;;;;;;;18.10;10.05;;;;;;;14.71;90.66;95624.69;5030138;28;20407;-80
2021/07/20 02:25:08;;;;;;;16.80;9.55;;;;;;;14.60;91.12;95631.22;5040770;28;20049;-80
2021/07/20 02:27:34;;;;;;;16.00;9.55;;;;;;;14.82;90.90;95637.75;5042817;28;20037;-80
2021/07/20 02:30:07;;;;;;;15.07;9.52;;;;;;;14.83;90.75;95636.69;5043647;28;20053;-80
2021/07/20 02:32:32;;;;;;;18.35;10.25;;;;;;;14.76;90.65;95638.94;5034317;28;20479;-80
2021/07/20 02:35:00;;;;;;;15.60;9.23;;;;;;;14.85;90.46;95629.22;5035765;28;20063;-80
2021/07/20 02:37:29;;;;;;;17.88;10.13;;;;;;;14.79;90.64;95636.47;5046794;28;20533;-80
2021/07/20 02:39:55;;;;;;;16.23;8.52;;;;;;;14.95;89.89;95634.31;5038687;28;20056;-81
2021/07/20 02:42:22;;;;;;;17.17;9.50;;;;;;;14.75;90.97;95642.66;5037152;28;20270;-80
2021/07/20 02:44:50;;;;;;;17.30;9.35;;;;;;;14.61;90.72;95643.41;5042486;28;20047;-80
2021/07/20 02:47:17;;;;;;;17.42;9.48;;;;;;;14.71;90.55;95640.59;5038147;28;20702;-80
2021/07/20 02:49:44;;;;;;;16.33;9.70;;;;;;;14.48;91.59;95633.53;5041125;28;20568;-81
2021/07/20 02:52:11;;;;;;;16.45;9.32;;;;;;;14.36;92.00;95634.78;5031746;28;20053;-81
2021/07/20 02:54:38;;;;;;;16.92;9.88;;;;;;;14.29;92.69;95629.06;5039509;28;20068;-81
2021/07/20 02:57:06;;;;;;;16.20;9.32;;;;;;;14.37;91.68;95633.72;5044735;28;20060;-80
2021/07/20 02:59:32;;;;;;;16.00;9.00;;;;;;;14.42;91.69;95637.34;5044568;28;20041;-82
2021/07/20 03:02:00;;;;;;;17.80;9.80;;;;;;;14.35;91.64;95637.72;5039216;28;20062;-81
2021/07/20 03:04:26;;;;;;;15.95;9.23;;;;;;;14.22;92.32;95644.53;5036286;28;20045;-80
2021/07/20 03:06:56;;;;;;;16.15;9.48;;;;;;;14.09;92.77;95640.78;5034153;28;20112;-80
2021/07/20 03:09:24;;;;;;;17.02;9.68;;;;;;;14.03;93.71;95637.41;5039786;28;20051;-81
2021/07/20 03:11:55;;;;;;;22.92;9.80;;;;;;;13.97;94.09;95643.88;5036168;28;20042;-81
2021/07/20 03:14:24;;;;;;;17.45;9.60;;;;;;;14.19;93.09;95640.63;5039201;28;20053;-80
2021/07/20 03:16:51;;;;;;;16.88;9.70;;;;;;;14.14;92.54;95642.56;5047740;28;20044;-81
2021/07/20 03:19:19;;;;;;;14.52;8.88;;;;;;;14.07;93.63;95642.16;5037300;28;20408;-81
2021/07/20 03:21:49;;;;;;;15.82;9.60;;;;;;;14.13;93.55;95635.69;5042868;28;20040;-80
2021/07/20 03:24:15;;;;;;;21.05;9.82;;;;;;;14.09;94.18;95645.28;5033759;28;20045;-80
2021/07/20 03:26:41;;;;;;;18.33;9.73;;;;;;;14.17;93.39;95642.00;5032421;28;20044;-80
2021/07/20 03:29:11;;;;;;;18.65;9.13;;;;;;;13.99;94.31;95641.72;5030185;28;20041;-80
2021/07/20 03:31:37;;;;;;;20.50;9.98;;;;;;;14.09;94.13;95650.59;5031501;28;20495;-82
2021/07/20 03:34:05;;;;;;;18.08;9.90;;;;;;;14.07;94.19;95653.50;5045242;28;20036;-81
2021/07/20 03:36:32;;;;;;;17.85;10.50;;;;;;;14.12;93.78;95650.00;5037382;28;20043;-81
2021/07/20 03:39:00;;;;;;;19.63;9.70;;;;;;;14.12;93.63;95660.59;5034122;28;20041;-80
2021/07/20 03:41:27;;;;;;;16.60;10.18;;;;;;;14.09;94.43;95666.47;5038851;28;20052;-80
2021/07/20 03:43:55;;;;;;;18.88;9.73;;;;;;;14.40;92.53;95655.41;5044379;28;20037;-80
2021/07/20 03:46:20;;;;;;;18.60;9.95;;;;;;;14.31;91.64;95658.72;5047978;28;20045;-80
2021/07/20 03:48:46;;;;;;;13.98;8.93;;;;;;;14.16;93.47;95666.88;5035817;28;20057;-81
2021/07/20 03:51:12;;;;;;;17.15;8.98;;;;;;;14.13;93.11;95659.53;5029949;28;20046;-80
2021/07/20 03:53:38;;;;;;;20.58;10.20;;;;;;;14.08;93.77;95654.28;5040613;28;20426;-80
2021/07/20 03:56:05;;;;;;;21.20;9.73;;;;;;;14.32;93.45;95665.59;5045382;28;20057;-80
2021/07/20 03:58:33;;;;;;;18.45;10.20;;;;;;;14.23;94.47;95672.59;5040382;28;20063;-82
2021/07/20 04:01:02;;;;;;;16.80;9.02;;;;;;;14.32;93.86;95681.47;5031164;28;20043;-81
2021/07/20 04:03:31;;;;;;;18.25;9.57;;;;;;;14.53;92.93;95673.97;5040321;28;20059;-80
2021/07/20 04:06:00;;;;;;;19.38;8.93;;;;;;;14.41;93.97;95673.66;5040342;28;20059;-81
2021/07/20 04:08:26;;;;;;;17.08;9.27;;;;;;;14.41;93.84;95683.44;5047700;28;20086;-80
2021/07/20 04:10:53;;;;;;;17.17;10.10;;;;;;;14.54;93.35;95682.72;5040906;28;20047;-80
2021/07/20 04:13:19;;;;;;;17.85;9.43;;;;;;;14.71;92.94;95682.97;5033638;28;20040;-81
2021/07/20 04:15:48;;;;;;;16.40;10.07;;;;;;;14.63;93.26;95681.00;5037756;28;20036;-81
2021/07/20 04:18:15;;;;;;;16.45;9.13;;;;;;;14.76;91.68;95690.03;5046286;28;20095;-80
2021/07/20 04:20:43;;;;;;;16.80;9.35;;;;;;;14.72;91.41;95684.56;5041868;28;20033;-80
2021/07/20 04:23:08;;;;;;;17.35;10.20;;;;;;;14.70;92.10;95685.91;5035529;28;20065;-80
2021/07/20 04:25:38;;;;;;;15.35;9.70;;;;;;;14.65;92.35;95688.66;5032758;28;20061;-80
2021/07/20 04:28:07;;;;;;;20.75;9.40;;;;;;;14.75;91.41;95687.69;5037840;28;20041;-81
2021/07/20 04:30:40;;;;;;;14.98;8.70;;;;;;;14.66;92.15;95680.41;5030678;28;20037;-80
2021/07/20 04:33:07;;;;;;;14.80;9.30;;;;;;;14.49;92.73;95693.38;5043014;28;20396;-81
2021/07/20 04:35:33;;;;;;;18.95;9.70;;;;;;;14.42;93.88;95695.59;5039431;28;20048;-80
2021/07/20 04:38:00;;;;;;;16.27;9.20;;;;;;;14.58;92.80;95688.97;5036727;28;20041;-80
2021/07/20 04:40:26;;;;;;;15.38;9.80;;;;;;;14.54;93.45;95694.09;5037737;28;20036;-80
2021/07/20 04:42:52;;;;;;;15.43;8.95;;;;;;;14.66;93.27;95696.28;5037939;28;20040;-80
2021/07/20 04:45:17;;;;;;;13.93;8.90;;;;;;;14.83;93.04;95700.28;5048604;28;20126;-81
2021/07/20 04:47:43;;;;;;;18.27;9.27;;;;;;;14.77;92.45;95706.72;5028814;28;20041;-80
2021/07/20 04:50:12;;;;;;;16.40;9.60;;;;;;;14.89;92.08;95699.88;5033359;28;20117;-80
2021/07/20 04:52:39;;;;;;;19.45;10.07;;;;;;;14.94;91.84;95701.69;5046407;28;20115;-80
2021/07/20 04:55:05;;;;;;;15.93;10.00;;;;;;;14.92;92.80;95703.03;5045187;28;20041;-81
2021/07/20 04:57:31;;;;;;;15.90;9.05;;;;;;;15.00;92.29;95705.78;5039107;28;20045;-81
2021/07/20 04:59:58;;;;;;;18.90;10.43;;;;;;;15.10;92.12;95704.03;5030225;28;20079;-80
2021/07/20 05:02:24;;;;;;;20.17;10.63;;;;;;;15.15;91.25;95709.25;5036997;28;20651;-81
2021/07/20 05:04:51;;;;;;;16.40;10.38;;;;;;;15.09;92.04;95707.78;5045841;28;20036;-81
2021/07/20 05:07:18;;;;;;;17.77;10.00;;;;;;;15.28;91.70;95711.13;5046995;28;20124;-81
2021/07/20 05:09:44;;;;;;;16.88;10.07;;;;;;;15.37;90.13;95698.75;5031827;28;20403;-80
2021/07/20 05:12:11;;;;;;;17.15;9.73;;;;;;;15.39;91.16;95712.50;5051566;28;20044;-80
2021/07/20 05:14:37;;;;;;;22.02;11.30;;;;;;;15.30;92.11;95706.31;5031605;28;20038;-80
2021/07/20 05:17:08;;;;;;;23.48;11.68;;;;;;;15.35;90.99;95710.72;5042365;28;20045;-80
2021/07/20 05:19:34;;;;;;;21.70;11.43;;;;;;;15.44;90.75;95718.78;5035351;28;20049;-81
2021/07/20 05:22:01;;;;;;;19.23;11.10;;;;;;;15.52;89.42;95712.78;5046957;28;20045;-82
2021/07/20 05:24:27;;;;;;;27.40;11.95;;;;;;;15.63;89.14;95722.13;5048849;28;20042;-84
2021/07/20 05:26:55;;;;;;;20.52;11.15;;;;;;;15.72;89.22;95715.03;5042091;28;20041;-82
2021/07/20 05:29:21;;;;;;;29.65;11.43;;;;;;;15.73;89.64;95726.41;5038128;28;20069;-83
2021/07/20 05:31:48;;;;;;;25.20;11.52;;;;;;;15.83;88.04;95714.84;5041448;28;20422;-82
2021/07/20 05:34:14;;;;;;;19.50;11.95;;;;;;;15.72;88.18;95720.34;5050027;28;20052;-83
2021/07/20 05:36:41;;;;;;;20.33;10.85;;;;;;;15.86;89.23;95719.56;5036765;28;20033;-82
2021/07/20 05:39:06;;;;;;;24.63;11.50;;;;;;;15.99;88.97;95717.97;5048611;28;20048;-83
2021/07/20 05:41:32;;;;;;;20.67;11.07;;;;;;;16.06;86.77;95719.13;5039098;28;20041;-83
2021/07/20 05:43:58;;;;;;;21.38;11.13;;;;;;;15.96;85.87;95727.31;5040637;28;20060;-80
2021/07/20 05:46:25;;;;;;;23.15;11.45;;;;;;;15.98;85.81;95717.19;5045190;28;20052;-83
2021/07/20 05:48:53;;;;;;;20.52;11.27;;;;;;;15.93;86.63;95719.94;5044960;28;20096;-80
2021/07/20 05:51:20;;;;;;;22.00;11.20;;;;;;;15.93;86.64;95718.09;5050770;28;20061;-79
2021/07/20 05:53:47;;;;;;;20.13;10.57;;;;;;;16.02;87.29;95720.81;5049123;28;20513;-78
2021/07/20 05:56:13;;;;;;;20.73;11.18;;;;;;;16.01;86.28;95716.56;5055747;28;20566;-78
2021/07/20 05:58:43;;;;;;;20.60;10.65;;;;;;;15.92;85.25;95726.34;5048975;28;20040;-78
2021/07/20 06:01:09;;;;;;;23.15;11.48;;;;;;;15.99;85.83;95724.06;5047409;28;20071;-78
2021/07/20 06:03:36;;;;;;;24.55;11.80;;;;;;;16.05;85.24;95722.88;5047019;28;20542;-78
2021/07/20 06:06:02;;;;;;;19.25;10.75;;;;;;;16.15;84.74;95726.38;5058224;28;20045;-78
2021/07/20 06:08:29;;;;;;;22.00;11.23;;;;;;;16.17;84.15;95719.69;5062935;28;20028;-79
2021/07/20 06:10:57;;;;;;;21.20;11.75;;;;;;;16.26;84.01;95723.22;5036703;28;20041;-79
2021/07/20 06:13:30;;;;;;;18.35;10.68;;;;;;;16.45;83.29;95720.38;5055102;28;20074;-78
2021/07/20 06:15:57;;;;;;;17.15;9.68;;;;;;;16.82;81.92;95720.28;5045131;28;20048;-78
2021/07/20 06:18:22;;;;;;;19.60;10.50;;;;;;;16.71;81.79;95724.31;5047265;28;20120;-78
2021/07/20 06:20:57;;;;;;;21.98;10.93;;;;;;;16.60;81.16;95721.09;5044270;28;20047;-78
2021/07/20 06:23:24;;;;;;;18.75;10.15;;;;;;;16.55;81.73;95726.53;5036875;28;20775;-78
2021/07/20 06:25:52;;;;;;;21.77;11.13;;;;;;;16.52;82.18;95730.59;5038267;28;20041;-78
2021/07/20 06:28:19;;;;;;;19.10;10.57;;;;;;;16.80;80.64;95736.53;5034846;28;20563;-77
2021/07/20 06:30:46;;;;;;;18.25;10.45;;;;;;;16.77;78.91;95731.84;5042829;28;20037;-78
2021/07/20 06:33:13;;;;;;;19.10;10.18;;;;;;;16.75;78.92;95739.34;5038909;28;20049;-79
2021/07/20 06:35:41;;;;;;;20.13;10.60;;;;;;;16.73;79.78;95736.19;5045301;28;20108;-78
2021/07/20 06:38:12;;;;;;;19.55;9.75;;;;;;;16.65;79.92;95734.28;5037897;28;20049;-78
2021/07/20 06:40:38;;;;;;;17.58;10.23;;;;;;;16.64;80.95;95738.00;5040228;28;20049;-78
2021/07/20 06:43:06;;;;;;;20.60;10.80;;;;;;;16.62;80.98;95742.81;5036020;28;20260;-78
2021/07/20 06:45:32;;;;;;;28.55;10.25;;;;;;;16.69;82.16;95745.06;5038595;28;20045;-78
2021/07/20 06:47:57;;;;;;;17.70;9.52;;;;;;;16.67;79.95;95734.75;5050341;28;20077;-78
2021/07/20 06:50:23;;;;;;;17.58;9.57;;;;;;;16.77;79.25;95739.81;5043094;28;20072;-78
2021/07/20 06:52:49;;;;;;;16.92;10.65;;;;;;;16.72;80.59;95739.94;5049308;28;20625;-78
2021/07/20 06:55:16;;;;;;;17.55;9.55;;;;;;;16.89;79.53;95744.59;5058831;28;20033;-78
2021/07/20 06:57:45;;;;;;;19.55;9.18;;;;;;;17.02;78.85;95737.63;5044935;28;20116;-81
2021/07/20 07:00:11;;;;;;;20.38;10.05;;;;;;;17.05;75.86;95737.06;5031805;28;20037;-80
2021/07/20 07:02:41;;;;;;;22.75;10.23;;;;;;;16.95;76.48;95737.28;5043089;28;20049;-82
2021/07/20 07:05:13;;;;;;;16.52;8.98;;;;;;;17.01;77.11;95741.41;5040213;28;20041;-80
2021/07/20 07:07:40;;;;;;;15.32;9.73;;;;;;;16.96;78.50;95738.88;5035858;28;20041;-81
2021/07/20 07:10:08;;;;;;;15.05;9.13;;;;;;;16.84;76.56;95735.94;5041641;28;20069;-80
2021/07/20 07:12:35;;;;;;;23.15;9.52;;;;;;;16.94;77.83;95741.81;5043906;28;20041;-81
2021/07/20 07:15:02;;;;;;;17.85;9.38;;;;;;;17.07;76.67;95740.19;5036267;28;20046;-83
2021/07/20 07:17:29;;;;;;;17.70;9.93;;;;;;;17.27;75.52;95743.41;5057759;28;20048;-83
2021/07/20 07:19:55;;;;;;;18.10;9.82;;;;;;;17.14;76.48;95745.84;5034537;28;20037;-83
2021/07/20 07:22:23;;;;;;;19.75;9.43;;;;;;;17.14;76.86;95739.75;5044519;28;20048;-81
2021/07/20 07:24:51;;;;;;;16.30;9.32;;;;;;;17.24;76.48;95754.63;5041525;28;20043;-81
2021/07/20 07:27:19;;;;;;;17.80;9.20;;;;;;;17.30;75.21;95750.78;5040440;28;20049;-82
2021/07/20 07:29:46;;;;;;;16.38;8.95;;;;;;;17.29;76.10;95751.84;5041198;28;20041;-82
2021/07/20 07:32:11;;;;;;;15.15;9.38;;;;;;;17.62;72.65;95754.19;5043580;28;20110;-83
2021/07/20 07:34:37;;;;;;;15.85;9.40;;;;;;;17.77;73.24;95750.28;5039093;28;20869;-82
2021/07/20 07:37:04;;;;;;;15.65;8.65;;;;;;;18.04;71.96;95749.28;5040770;28;20199;-82
2021/07/20 07:39:31;;;;;;;15.15;8.82;;;;;;;18.10;71.22;95753.38;5045412;28;20041;-81
2021/07/20 07:41:58;;;;;;;15.38;8.63;;;;;;;18.08;71.66;95744.91;5044281;28;20048;-82
2021/07/20 07:44:24;;;;;;;14.77;8.18;;;;;;;18.15;68.90;95745.22;5046854;28;20414;-82
2021/07/20 07:46:51;;;;;;;15.30;8.30;;;;;;;18.31;67.59;95742.13;5046885;28;20052;-84
2021/07/20 07:49:19;;;;;;;19.42;10.00;;;;;;;18.05;70.92;95740.22;5034703;28;20052;-84
2021/07/20 07:51:46;;;;;;;15.32;8.80;;;;;;;17.94;71.65;95749.59;5046274;28;20037;-84
2021/07/20 07:54:12;;;;;;;18.98;9.05;;;;;;;18.03;68.68;95737.09;5034989;28;20495;-84
2021/07/20 07:56:38;;;;;;;16.20;9.55;;;;;;;17.96;70.40;95742.09;5041768;28;20048;-83
2021/07/20 07:59:06;;;;;;;15.27;8.98;;;;;;;17.98;69.92;95745.97;5041307;28;20041;-82
2021/07/20 08:01:32;;;;;;;18.85;9.63;;;;;;;18.08;69.20;95744.13;5041111;28;20045;-84
2021/07/20 08:03:59;;;;;;;23.08;10.02;;;;;;;17.95;70.04;95735.19;5047136;28;20057;-83
2021/07/20 08:06:29;;;;;;;15.90;8.65;;;;;;;18.13;68.79;95742.09;5040604;28;20087;-82
2021/07/20 08:08:59;;;;;;;15.20;9.25;;;;;;;18.48;68.43;95736.78;5040957;28;20053;-82
2021/07/20 08:11:26;;;;;;;17.52;9.10;;;;;;;18.49;69.20;95743.69;5044508;28;20517;-84
2021/07/20 08:13:55;;;;;;;22.92;9.02;;;;;;;18.50;66.84;95745.25;5043575;28;20041;-82
2021/07/20 08:16:22;;;;;;;14.32;8.77;;;;;;;18.61;64.91;95744.94;5039814;28;20053;-83
2021/07/20 08:18:48;;;;;;;15.93;9.15;;;;;;;18.38;63.87;95737.09;5040095;28;20041;-81
2021/07/20 08:21:15;;;;;;;17.17;8.88;;;;;;;18.38;65.56;95752.31;5042284;28;20042;-83
2021/07/20 08:23:41;;;;;;;17.55;8.68;;;;;;;18.42;63.44;95747.91;5041736;28;20045;-81
2021/07/20 08:26:17;;;;;;;13.27;7.43;;;;;;;18.44;63.61;95746.50;5033130;28;20405;-80
2021/07/20 08:28:53;;;;;;;13.65;8.23;;;;;;;18.48;63.01;95744.78;5041415;28;20041;-82
2021/07/20 08:31:20;;;;;;;17.65;8.82;;;;;;;18.65;64.65;95749.31;5041512;28;20060;-81
2021/07/20 08:33:48;;;;;;;15.15;7.72;;;;;;;18.77;69.24;95754.00;5037130;28;20608;-81
2021/07/20 08:36:17;;;;;;;16.20;8.35;;;;;;;19.18;61.01;95752.69;5043933;28;20063;-80
2021/07/20 08:38:47;;;;;;;14.90;8.80;;;;;;;19.59;58.39;95760.41;5039570;28;20132;-83
2021/07/20 08:41:50;;;;;;;15.27;8.27;;;;;;;19.44;60.47;95751.84;5029879;28;20033;-83
2021/07/20 08:44:40;;;;;;;17.95;8.85;;;;;;;19.39;60.52;95754.66;5030656;28;20041;-82
2021/07/20 08:47:26;;;;;;;14.52;8.23;;;;;;;19.23;65.08;95753.63;5036394;28;20460;-82
2021/07/20 08:50:13;;;;;;;18.42;8.05;;;;;;;19.32;60.77;95757.03;5041618;28;20041;-82
2021/07/20 08:52:50;;;;;;;17.27;9.20;;;;;;;19.37;63.87;95749.66;5039816;28;20130;-79
2021/07/20 08:55:23;;;;;;;19.80;9.15;;;;;;;19.29;59.38;95747.78;5044537;28;20423;-81
2021/07/20 08:58:10;;;;;;;13.52;8.45;;;;;;;19.35;61.32;95756.41;5042667;28;20037;-83
2021/07/20 09:00:39;;;;;;;17.20;9.05;;;;;;;19.39;60.79;95754.66;5042504;28;20041;-81
2021/07/20 09:03:50;;;;;;;17.73;8.88;;;;;;;19.35;60.06;95761.75;5039412;28;20040;-79
2021/07/20 09:06:30;;;;;;;15.38;9.23;;;;;;;19.37;60.00;95754.22;5017305;28;20069;-80
2021/07/20 09:09:00;;;;;;;18.55;9.13;;;;;;;19.41;61.85;95754.34;5002112;28;20755;-80
2021/07/20 09:11:41;;;;;;;18.25;9.93;;;;;;;19.39;58.30;95746.66;5035001;28;20140;-81
2021/07/20 09:14:32;;;;;;;15.40;8.63;;;;;;;19.46;61.23;95757.63;5046123;28;20056;-79
2021/07/20 09:17:37;;;;;;;16.50;9.60;;;;;;;19.60;57.83;95756.63;5043704;28;20079;-80
2021/07/20 09:20:11;;;;;;;;;;;;;;;19.67;58.83;95757.69;5034391;28;20064;-82
2021/07/20 09:22:58;;;;;;;18.05;9.07;;;;;;;19.87;59.08;95756.22;5046093;28;19924;-81
2021/07/20 09:25:42;;;;;;;14.05;8.35;;;;;;;20.37;60.79;95759.19;5040992;28;20033;-81
2021/07/20 09:28:22;;;;;;;14.18;8.52;;;;;;;20.44;56.37;95759.44;5047847;28;20075;-79
2021/07/20 09:30:51;;;;;;;17.23;8.98;;;;;;;20.41;54.54;95760.09;5046932;28;20102;-79
2021/07/20 09:33:24;;;;;;;20.42;9.27;;;;;;;20.29;55.05;95765.38;5042420;28;20049;-81
2021/07/20 09:36:00;;;;;;;15.98;8.95;;;;;;;20.35;57.68;95764.06;5043544;28;20534;-80
2021/07/20 09:38:28;;;;;;;18.15;9.27;;;;;;;20.40;53.54;95766.53;5046741;28;20037;-81
2021/07/20 09:41:24;;;;;;;16.40;9.20;;;;;;;20.60;55.32;95764.97;5045719;28;20033;-79
2021/07/20 09:44:27;;;;;;;22.92;9.85;;;;;;;20.54;54.11;95761.75;5045861;28;20033;-80
2021/07/20 09:47:13;;;;;;;19.88;9.05;;;;;;;20.54;55.57;95761.75;5046346;28;20049;-80
2021/07/20 09:50:05;;;;;;;17.98;10.30;;;;;;;20.77;56.35;95764.88;5045144;28;20045;-78
2021/07/20 09:53:08;;;;;;;20.23;9.70;;;;;;;20.74;56.61;95764.72;5048517;28;20036;-78
2021/07/20 09:55:45;;;;;;;23.45;10.25;;;;;;;20.37;53.84;95767.19;5047588;28;20044;-78
2021/07/20 09:58:28;;;;;;;20.95;10.30;;;;;;;20.76;55.10;95763.28;5047999;28;20034;-78
2021/07/20 10:01:07;;;;;;;24.35;10.32;;;;;;;20.88;60.23;95765.22;5051452;28;20037;-78
2021/07/20 10:04:01;;;;;;;17.48;9.85;;;;;;;20.97;54.40;95757.13;5050891;28;20037;-78
2021/07/20 10:06:37;;;;;;;17.00;10.57;;;;;;;21.16;55.61;95753.16;5051368;28;20045;-77
2021/07/20 10:09:25;;;;;;;19.83;11.30;;;;;;;21.34;54.77;95748.41;5047341;28;20045;-78
2021/07/20 10:11:53;;;;;;;17.50;10.80;;;;;;;21.37;53.18;95742.38;5053574;28;20063;-78
2021/07/20 10:14:29;;;;;;;18.05;10.43;;;;;;;21.32;54.87;95738.03;5054490;28;20574;-78
2021/07/20 10:17:16;;;;;;;21.95;10.18;;;;;;;21.21;55.84;95745.69;5056007;28;20094;-78
2021/07/20 10:20:16;;;;;;;19.17;11.20;;;;;;;20.96;56.33;95750.22;5053007;28;20040;-78
2021/07/20 10:22:46;;;;;;;17.02;10.10;;;;;;;21.18;53.20;95738.34;5047218;28;20041;-78
2021/07/20 10:25:20;;;;;;;16.63;10.27;;;;;;;21.25;56.25;95741.25;5047986;28;20122;-78
2021/07/20 10:27:53;;;;;;;19.02;10.80;;;;;;;21.87;54.76;95743.97;5052026;28;20106;-78
2021/07/20 10:30:20;;;;;;;15.68;10.63;;;;;;;21.57;52.85;95738.84;5049369;28;20045;-78
2021/07/20 10:33:04;;;;;;;18.15;10.55;;;;;;;20.91;54.57;95743.16;5047517;28;20033;-79
2021/07/20 10:35:49;;;;;;;23.33;10.98;;;;;;;21.16;55.95;95737.09;5049447;28;20068;-78
2021/07/20 10:38:20;;;;;;;18.98;10.65;;;;;;;21.05;55.65;95747.47;5045342;28;20044;-78
2021/07/20 10:40:48;;;;;;;18.13;10.48;;;;;;;21.10;55.96;95745.34;5047256;28;20655;-78
2021/07/20 10:43:22;;;;;;;18.30;10.32;;;;;;;21.63;56.01;95740.16;5049128;28;20045;-79
2021/07/20 10:45:49;;;;;;;20.80;10.70;;;;;;;22.18;53.03;95742.56;5049543;28;20037;-77
2021/07/20 10:48:15;;;;;;;19.23;11.07;;;;;;;22.95;50.48;95735.53;5046673;28;20053;-77
2021/07/20 10:51:03;;;;;;;15.75;10.30;;;;;;;23.17;50.64;95736.88;5050595;28;20559;-78
2021/07/20 10:54:06;;;;;;;20.58;11.68;;;;;;;23.27;51.09;95730.97;5050410;28;20049;-77
2021/07/20 10:56:58;;;;;;;18.77;11.00;;;;;;;23.69;46.96;95735.84;5049695;28;20060;-78
2021/07/20 10:59:51;;;;;;;17.58;11.15;;;;;;;22.73;49.48;95734.16;5053424;28;20045;-77
2021/07/20 11:02:23;;;;;;;19.13;11.35;;;;;;;22.62;50.02;95734.66;5045409;28;20478;-78
2021/07/20 11:04:57;;;;;;;22.27;11.63;;;;;;;22.48;51.32;95728.91;5050545;28;20041;-78
2021/07/20 11:07:52;;;;;;;19.10;11.82;;;;;;;22.99;48.56;95737.16;5053468;28;20653;-77
2021/07/20 11:10:30;;;;;;;18.17;11.48;;;;;;;23.64;49.93;95728.03;5040112;28;20493;-79
2021/07/20 11:13:05;;;;;;;21.30;11.45;;;;;;;24.41;47.74;95727.78;5026735;28;20065;-79
2021/07/20 11:15:33;;;;;;;22.45;12.23;;;;;;;23.38;45.70;95719.75;5051237;28;20079;-79
2021/07/20 11:18:13;;;;;;;21.23;12.20;;;;;;;23.10;48.69;95728.59;5047195;28;20069;-79
2021/07/20 11:20:41;;;;;;;19.98;11.90;;;;;;;23.39;46.19;95721.28;5039607;28;20041;-79
2021/07/20 11:23:08;;;;;;;23.77;13.90;;;;;;;24.30;46.08;95724.88;5035454;28;20044;-78
2021/07/20 11:25:36;;;;;;;19.63;12.27;;;;;;;24.24;45.38;95721.69;5045777;28;20033;-77
2021/07/20 11:28:03;;;;;;;21.23;12.80;;;;;;;24.71;43.58;95719.94;5042137;28;20056;-79
2021/07/20 11:30:31;;;;;;;19.67;12.50;;;;;;;24.97;43.25;95713.91;5049188;28;20129;-79
2021/07/20 11:33:04;;;;;;;20.70;12.93;;;;;;;26.36;41.93;95702.94;5044615;28;20491;-77
2021/07/20 11:35:37;;;;;;;18.70;11.98;;;;;;;25.99;43.05;95710.88;5039147;28;20053;-78
2021/07/20 11:38:12;;;;;;;21.93;13.43;;;;;;;25.87;42.42;95703.78;5031559;28;20211;-82
2021/07/20 11:41:00;;;;;;;18.60;12.82;;;;;;;26.54;43.76;95713.91;5038515;28;20289;-80
2021/07/20 11:44:10;;;;;;;19.80;12.73;;;;;;;26.88;39.59;95707.75;5041554;28;20033;-84